PWSweather.com
Personal Weather Stations
Station Observations
EI4HQ
Cork Harbour, CobhIE

Cork HarbourCobhIE

Lat: 51.85, Lon: -8.29

Elevation: 252

Station Type: Davis Vantage Pro2

http://www.corkharbourweather.ie

Latest ConditionsUpdated 11:36:00 AM GMT Tuesday, Dec 10, 2019
Currently Today's Max Today's Min Today's Average
Temperature 54.1°F12.3°C 54.1°F12.3°C 49.3°F9.6°C 52.0°F11.1°C
Dew Point 53.6°F12.0°C 53.6°F12.0°C 46.8°F8.2°C 51.0°F10.6°C
Winds 19.0 mph SSW30.6 kmh SSW 31.0 mph -49.9 kmh - - 21.5 mph 34.6 kmh
Wind Gusts 37.0 mph59.5 kmh 46.0 mph74.0 kmh - -
Humidity 98% 98% 90% 96%
Pressure 29.36 in994.2 mb 30.01 in1016.3 mb 29.36 in994.2 mb -
Precipitation - 0.43 in10.9 mm - -
Hour Temp Dew Point Humidity Winds Wind Gusts Pressure Precip Precip Rate Daily Precip Total
11:36 AM 54.1°F12.3°C 53.6°F12.0°C 98% 19.0 mph SSW30.6 kmh SSW 37.0 mph59.5 kmh 29.36 in994.2 mb 0.03 in0.8 mm 0.00 in0.0 mm 0.43 in10.9 mm
11:33 AM 54.1°F12.3°C 53.6°F12.0°C 98% 19.0 mph SSW30.6 kmh SSW 39.0 mph62.8 kmh 29.37 in994.6 mb 0.04 in1.0 mm 0.00 in0.0 mm 0.43 in10.9 mm
11:30 AM 54.1°F12.3°C 53.6°F12.0°C 98% 19.0 mph SSW30.6 kmh SSW 39.0 mph62.8 kmh 29.38 in994.9 mb 0.04 in1.0 mm 0.00 in0.0 mm 0.43 in10.9 mm
11:27 AM 54.1°F12.3°C 53.6°F12.0°C 98% 19.0 mph SSW30.6 kmh SSW 39.0 mph62.8 kmh 29.38 in994.9 mb 0.05 in1.3 mm 0.00 in0.0 mm 0.43 in10.9 mm
11:24 AM 54.1°F12.3°C 53.6°F12.0°C 98% 19.0 mph SSW30.6 kmh SSW 39.0 mph62.8 kmh 29.38 in994.9 mb 0.05 in1.3 mm 0.00 in0.0 mm 0.43 in10.9 mm
11:21 AM 54.1°F12.3°C 53.6°F12.0°C 98% 19.0 mph SSW30.6 kmh SSW 37.0 mph59.5 kmh 29.39 in995.3 mb 0.05 in1.3 mm 0.00 in0.0 mm 0.43 in10.9 mm
11:18 AM 54.1°F12.3°C 53.6°F12.0°C 98% 18.0 mph SSW29.0 kmh SSW 37.0 mph59.5 kmh 29.38 in994.9 mb 0.05 in1.3 mm 0.00 in0.0 mm 0.43 in10.9 mm
11:15 AM 54.1°F12.3°C 53.6°F12.0°C 98% 18.0 mph SSW29.0 kmh SSW 33.0 mph53.1 kmh 29.39 in995.3 mb 0.05 in1.3 mm 0.00 in0.0 mm 0.43 in10.9 mm
11:12 AM 54.1°F12.3°C 53.6°F12.0°C 98% 18.0 mph SSW29.0 kmh SSW 31.0 mph49.9 kmh 29.39 in995.3 mb 0.05 in1.3 mm 0.00 in0.0 mm 0.43 in10.9 mm
11:09 AM 54.1°F12.3°C 53.6°F12.0°C 98% 18.0 mph SSW29.0 kmh SSW 33.0 mph53.1 kmh 29.39 in995.3 mb 0.05 in1.3 mm 0.00 in0.0 mm 0.43 in10.9 mm
11:06 AM 54.1°F12.3°C 53.6°F12.0°C 98% 18.0 mph SSW29.0 kmh SSW 36.0 mph57.9 kmh 29.39 in995.3 mb 0.05 in1.3 mm 0.00 in0.0 mm 0.43 in10.9 mm
11:03 AM 54.0°F12.2°C 53.4°F11.9°C 98% 18.0 mph S29.0 kmh S 36.0 mph57.9 kmh 29.39 in995.3 mb 0.06 in1.5 mm 0.00 in0.0 mm 0.43 in10.9 mm
11:00 AM 54.0°F12.2°C 53.4°F11.9°C 98% 18.0 mph S29.0 kmh S 36.0 mph57.9 kmh 29.39 in995.3 mb 0.06 in1.5 mm 0.01 in0.3 mm 0.43 in10.9 mm
10:57 AM 54.0°F12.2°C 53.4°F11.9°C 98% 18.0 mph S29.0 kmh S 33.0 mph53.1 kmh 29.40 in995.6 mb 0.05 in1.3 mm 0.00 in0.0 mm 0.43 in10.9 mm
10:54 AM 54.0°F12.2°C 53.4°F11.9°C 98% 18.0 mph S29.0 kmh S 33.0 mph53.1 kmh 29.40 in995.6 mb 0.06 in1.5 mm 0.00 in0.0 mm 0.43 in10.9 mm
10:51 AM 54.0°F12.2°C 53.4°F11.9°C 98% 18.0 mph S29.0 kmh S 35.0 mph56.3 kmh 29.41 in995.9 mb 0.06 in1.5 mm 0.00 in0.0 mm 0.43 in10.9 mm
10:48 AM 54.0°F12.2°C 53.4°F11.9°C 98% 19.0 mph S30.6 kmh S 35.0 mph56.3 kmh 29.41 in995.9 mb 0.06 in1.5 mm 0.00 in0.0 mm 0.43 in10.9 mm
10:45 AM 54.0°F12.2°C 53.4°F11.9°C 98% 19.0 mph S30.6 kmh S 35.0 mph56.3 kmh 29.41 in995.9 mb 0.06 in1.5 mm 0.20 in5.1 mm 0.43 in10.9 mm
10:42 AM 53.8°F12.1°C 53.2°F11.8°C 98% 19.0 mph S30.6 kmh S 33.0 mph53.1 kmh 29.41 in995.9 mb 0.05 in1.3 mm 0.20 in5.1 mm 0.42 in10.7 mm
10:39 AM 53.8°F12.1°C 53.2°F11.8°C 98% 19.0 mph S30.6 kmh S 33.0 mph53.1 kmh 29.41 in995.9 mb 0.04 in1.0 mm 0.20 in5.1 mm 0.41 in10.4 mm
10:36 AM 53.8°F12.1°C 53.2°F11.8°C 98% 19.0 mph S30.6 kmh S 33.0 mph53.1 kmh 29.41 in995.9 mb 0.03 in0.8 mm 0.20 in5.1 mm 0.40 in10.2 mm
10:33 AM 54.0°F12.2°C 53.4°F11.9°C 98% 20.0 mph S32.2 kmh S 36.0 mph57.9 kmh 29.41 in995.9 mb 0.02 in0.5 mm 0.00 in0.0 mm 0.39 in9.9 mm
10:30 AM 54.0°F12.2°C 53.4°F11.9°C 98% 21.0 mph S33.8 kmh S 37.0 mph59.5 kmh 29.41 in995.9 mb 0.02 in0.5 mm 0.00 in0.0 mm 0.39 in9.9 mm
10:27 AM 54.0°F12.2°C 53.4°F11.9°C 98% 23.0 mph S37.0 kmh S 37.0 mph59.5 kmh 29.42 in996.3 mb 0.02 in0.5 mm 0.00 in0.0 mm 0.39 in9.9 mm
10:24 AM 54.0°F12.2°C 53.4°F11.9°C 98% 23.0 mph S37.0 kmh S 37.0 mph59.5 kmh 29.42 in996.3 mb 0.02 in0.5 mm 0.00 in0.0 mm 0.39 in9.9 mm
10:21 AM 54.0°F12.2°C 53.4°F11.9°C 98% 22.0 mph S35.4 kmh S 36.0 mph57.9 kmh 29.40 in995.6 mb 0.02 in0.5 mm 0.00 in0.0 mm 0.39 in9.9 mm
10:18 AM 54.0°F12.2°C 53.4°F11.9°C 98% 23.0 mph S37.0 kmh S 41.0 mph66.0 kmh 29.42 in996.3 mb 0.02 in0.5 mm 0.00 in0.0 mm 0.39 in9.9 mm
10:15 AM 54.0°F12.2°C 53.4°F11.9°C 98% 22.0 mph S35.4 kmh S 41.0 mph66.0 kmh 29.42 in996.3 mb 0.03 in0.8 mm 0.00 in0.0 mm 0.39 in9.9 mm
10:12 AM 54.0°F12.2°C 53.4°F11.9°C 98% 23.0 mph S37.0 kmh S 41.0 mph66.0 kmh 29.41 in995.9 mb 0.03 in0.8 mm 0.00 in0.0 mm 0.39 in9.9 mm
10:09 AM 54.0°F12.2°C 53.4°F11.9°C 98% 22.0 mph S35.4 kmh S 41.0 mph66.0 kmh 29.42 in996.3 mb 0.03 in0.8 mm 0.00 in0.0 mm 0.39 in9.9 mm
10:06 AM 54.0°F12.2°C 53.4°F11.9°C 98% 22.0 mph S35.4 kmh S 41.0 mph66.0 kmh 29.43 in996.6 mb 0.03 in0.8 mm 0.20 in5.1 mm 0.39 in9.9 mm
10:03 AM 54.0°F12.2°C 53.4°F11.9°C 98% 22.0 mph S35.4 kmh S 36.0 mph57.9 kmh 29.42 in996.3 mb 0.02 in0.5 mm 0.00 in0.0 mm 0.38 in9.7 mm
10:00 AM 54.0°F12.2°C 53.4°F11.9°C 98% 22.0 mph S35.4 kmh S 35.0 mph56.3 kmh 29.43 in996.6 mb 0.02 in0.5 mm 0.00 in0.0 mm 0.38 in9.7 mm
09:57 AM 54.0°F12.2°C 53.4°F11.9°C 98% 22.0 mph S35.4 kmh S 35.0 mph56.3 kmh 29.43 in996.6 mb 0.02 in0.5 mm 0.00 in0.0 mm 0.38 in9.7 mm
09:54 AM 53.8°F12.1°C 53.2°F11.8°C 98% 21.0 mph S33.8 kmh S 33.0 mph53.1 kmh 29.44 in997.0 mb 0.02 in0.5 mm 0.00 in0.0 mm 0.37 in9.4 mm
09:51 AM 53.8°F12.1°C 53.2°F11.8°C 98% 23.0 mph S37.0 kmh S 39.0 mph62.8 kmh 29.44 in997.0 mb 0.02 in0.5 mm 0.00 in0.0 mm 0.37 in9.4 mm
09:48 AM 53.8°F12.1°C 53.2°F11.8°C 98% 23.0 mph S37.0 kmh S 39.0 mph62.8 kmh 29.44 in997.0 mb 0.02 in0.5 mm 0.00 in0.0 mm 0.37 in9.4 mm
09:45 AM 53.8°F12.1°C 53.2°F11.8°C 98% 23.0 mph S37.0 kmh S 39.0 mph62.8 kmh 29.44 in997.0 mb 0.02 in0.5 mm 0.00 in0.0 mm 0.37 in9.4 mm
09:42 AM 53.8°F12.1°C 53.1°F11.7°C 98% 22.0 mph S35.4 kmh S 39.0 mph62.8 kmh 29.44 in997.0 mb 0.02 in0.5 mm 0.00 in0.0 mm 0.37 in9.4 mm
09:39 AM 53.6°F12.0°C 53.1°F11.7°C 98% 22.0 mph S35.4 kmh S 39.0 mph62.8 kmh 29.46 in997.6 mb 0.02 in0.5 mm 0.00 in0.0 mm 0.37 in9.4 mm
09:36 AM 53.8°F12.1°C 53.1°F11.7°C 98% 23.0 mph S37.0 kmh S 46.0 mph74.0 kmh 29.44 in997.0 mb 0.03 in0.8 mm 0.00 in0.0 mm 0.37 in9.4 mm
09:33 AM 53.6°F12.0°C 53.1°F11.7°C 98% 22.0 mph S35.4 kmh S 46.0 mph74.0 kmh 29.46 in997.6 mb 0.03 in0.8 mm 0.20 in5.1 mm 0.37 in9.4 mm
09:30 AM 53.8°F12.1°C 53.1°F11.7°C 98% 22.0 mph S35.4 kmh S 46.0 mph74.0 kmh 29.46 in997.6 mb 0.02 in0.5 mm 0.00 in0.0 mm 0.36 in9.1 mm
09:27 AM 53.6°F12.0°C 53.1°F11.7°C 98% 23.0 mph S37.0 kmh S 46.0 mph74.0 kmh 29.46 in997.6 mb 0.02 in0.5 mm 0.00 in0.0 mm 0.36 in9.1 mm
09:24 AM 53.6°F12.0°C 53.1°F11.7°C 98% 22.0 mph S35.4 kmh S 34.0 mph54.7 kmh 29.47 in998.0 mb 0.02 in0.5 mm 0.00 in0.0 mm 0.36 in9.1 mm
09:21 AM 53.6°F12.0°C 53.1°F11.7°C 98% 23.0 mph S37.0 kmh S 34.0 mph54.7 kmh 29.47 in998.0 mb 0.02 in0.5 mm 0.00 in0.0 mm 0.36 in9.1 mm
09:18 AM 53.6°F12.0°C 53.1°F11.7°C 98% 23.0 mph S37.0 kmh S 34.0 mph54.7 kmh 29.47 in998.0 mb 0.02 in0.5 mm 0.00 in0.0 mm 0.36 in9.1 mm
09:15 AM 53.6°F12.0°C 53.1°F11.7°C 98% 23.0 mph S37.0 kmh S 36.0 mph57.9 kmh 29.48 in998.3 mb 0.02 in0.5 mm 0.00 in0.0 mm 0.35 in8.9 mm
09:12 AM 53.6°F12.0°C 53.1°F11.7°C 98% 23.0 mph S37.0 kmh S 36.0 mph57.9 kmh 29.48 in998.3 mb 0.02 in0.5 mm 0.00 in0.0 mm 0.35 in8.9 mm
09:09 AM 53.6°F12.0°C 53.1°F11.7°C 98% 23.0 mph S37.0 kmh S 36.0 mph57.9 kmh 29.48 in998.3 mb 0.02 in0.5 mm 0.00 in0.0 mm 0.35 in8.9 mm
09:06 AM 53.6°F12.0°C 53.1°F11.7°C 98% 23.0 mph S37.0 kmh S 36.0 mph57.9 kmh 29.48 in998.3 mb 0.02 in0.5 mm 0.00 in0.0 mm 0.35 in8.9 mm
09:03 AM 53.6°F12.0°C 53.1°F11.7°C 98% 23.0 mph S37.0 kmh S 37.0 mph59.5 kmh 29.48 in998.3 mb 0.02 in0.5 mm 0.00 in0.0 mm 0.35 in8.9 mm
09:00 AM 53.4°F11.9°C 52.9°F11.6°C 98% 23.0 mph S37.0 kmh S 37.0 mph59.5 kmh 29.49 in998.6 mb 0.02 in0.5 mm 0.00 in0.0 mm 0.35 in8.9 mm
08:57 AM 53.4°F11.9°C 52.9°F11.6°C 98% 23.0 mph S37.0 kmh S 37.0 mph59.5 kmh 29.49 in998.6 mb 0.02 in0.5 mm 0.00 in0.0 mm 0.35 in8.9 mm
08:54 AM 53.4°F11.9°C 52.9°F11.6°C 98% 21.0 mph S33.8 kmh S 37.0 mph59.5 kmh 29.49 in998.6 mb 0.02 in0.5 mm 0.00 in0.0 mm 0.35 in8.9 mm
08:51 AM 53.4°F11.9°C 52.9°F11.6°C 98% 21.0 mph S33.8 kmh S 34.0 mph54.7 kmh 29.50 in999.0 mb 0.02 in0.5 mm 0.00 in0.0 mm 0.35 in8.9 mm
08:48 AM 53.4°F11.9°C 52.9°F11.6°C 98% 20.0 mph S32.2 kmh S 33.0 mph53.1 kmh 29.50 in999.0 mb 0.02 in0.5 mm 0.00 in0.0 mm 0.35 in8.9 mm
08:45 AM 53.4°F11.9°C 52.9°F11.6°C 98% 19.0 mph S30.6 kmh S 31.0 mph49.9 kmh 29.50 in999.0 mb 0.02 in0.5 mm 0.00 in0.0 mm 0.35 in8.9 mm
08:42 AM 53.2°F11.8°C 52.7°F11.5°C 98% 22.0 mph S35.4 kmh S 31.0 mph49.9 kmh 29.50 in999.0 mb 0.02 in0.5 mm 0.00 in0.0 mm 0.35 in8.9 mm
08:39 AM 53.2°F11.8°C 52.7°F11.5°C 98% 23.0 mph S37.0 kmh S 30.0 mph48.3 kmh 29.50 in999.0 mb 0.02 in0.5 mm 0.20 in5.1 mm 0.35 in8.9 mm
08:36 AM 53.2°F11.8°C 52.7°F11.5°C 98% 23.0 mph S37.0 kmh S 30.0 mph48.3 kmh 29.50 in999.0 mb 0.01 in0.3 mm 0.00 in0.0 mm 0.34 in8.6 mm
08:33 AM 53.2°F11.8°C 52.7°F11.5°C 98% 21.0 mph S33.8 kmh S 30.0 mph48.3 kmh 29.51 in999.3 mb 0.01 in0.3 mm 0.00 in0.0 mm 0.34 in8.6 mm
08:30 AM 53.2°F11.8°C 52.7°F11.5°C 98% 18.0 mph S29.0 kmh S 29.0 mph46.7 kmh 29.51 in999.3 mb 0.01 in0.3 mm 0.00 in0.0 mm 0.34 in8.6 mm
08:27 AM 53.2°F11.8°C 52.7°F11.5°C 98% 18.0 mph S29.0 kmh S 33.0 mph53.1 kmh 29.52 in999.7 mb 0.01 in0.3 mm 0.00 in0.0 mm 0.34 in8.6 mm
08:24 AM 53.2°F11.8°C 52.7°F11.5°C 98% 19.0 mph S30.6 kmh S 33.0 mph53.1 kmh 29.52 in999.7 mb 0.01 in0.3 mm 0.00 in0.0 mm 0.34 in8.6 mm
08:21 AM 53.2°F11.8°C 52.7°F11.5°C 98% 19.0 mph S30.6 kmh S 33.0 mph53.1 kmh 29.52 in999.7 mb 0.01 in0.3 mm 0.00 in0.0 mm 0.34 in8.6 mm
08:18 AM 53.4°F11.9°C 52.9°F11.6°C 98% 17.0 mph S27.4 kmh S 30.0 mph48.3 kmh 29.52 in999.7 mb 0.01 in0.3 mm 0.00 in0.0 mm 0.34 in8.6 mm
08:15 AM 53.2°F11.8°C 52.7°F11.5°C 98% 17.0 mph S27.4 kmh S 30.0 mph48.3 kmh 29.53 in1000.0 mb 0.01 in0.3 mm 0.20 in5.1 mm 0.34 in8.6 mm
08:12 AM 53.2°F11.8°C 52.7°F11.5°C 98% 16.0 mph S25.7 kmh S 28.0 mph45.1 kmh 29.53 in1000.0 mb 0.00 in0.0 mm 0.00 in0.0 mm 0.33 in8.4 mm
08:09 AM 53.2°F11.8°C 52.7°F11.5°C 98% 15.0 mph SSW24.1 kmh SSW 25.0 mph40.2 kmh 29.54 in1000.3 mb 0.00 in0.0 mm 0.00 in0.0 mm 0.33 in8.4 mm
08:06 AM 53.4°F11.9°C 52.9°F11.6°C 98% 15.0 mph SSW24.1 kmh SSW 34.0 mph54.7 kmh 29.54 in1000.3 mb 0.00 in0.0 mm 0.00 in0.0 mm 0.33 in8.4 mm
08:03 AM 53.4°F11.9°C 52.9°F11.6°C 98% 14.0 mph SSW22.5 kmh SSW 34.0 mph54.7 kmh 29.54 in1000.3 mb 0.01 in0.3 mm 0.00 in0.0 mm 0.33 in8.4 mm
08:00 AM 53.4°F11.9°C 52.9°F11.6°C 98% 15.0 mph SSW24.1 kmh SSW 34.0 mph54.7 kmh 29.55 in1000.7 mb 0.01 in0.3 mm 0.00 in0.0 mm 0.33 in8.4 mm
07:57 AM 53.4°F11.9°C 52.9°F11.6°C 98% 15.0 mph SSW24.1 kmh SSW 34.0 mph54.7 kmh 29.55 in1000.7 mb 0.01 in0.3 mm 0.00 in0.0 mm 0.33 in8.4 mm
07:54 AM 53.4°F11.9°C 52.9°F11.6°C 98% 15.0 mph SSW24.1 kmh SSW 25.0 mph40.2 kmh 29.55 in1000.7 mb 0.01 in0.3 mm 0.00 in0.0 mm 0.33 in8.4 mm
07:51 AM 53.4°F11.9°C 52.9°F11.6°C 98% 15.0 mph SSW24.1 kmh SSW 25.0 mph40.2 kmh 29.55 in1000.7 mb 0.01 in0.3 mm 0.00 in0.0 mm 0.33 in8.4 mm
07:48 AM 53.4°F11.9°C 52.9°F11.6°C 98% 16.0 mph SSW25.7 kmh SSW 32.0 mph51.5 kmh 29.55 in1000.7 mb 0.01 in0.3 mm 0.00 in0.0 mm 0.33 in8.4 mm
07:45 AM 53.4°F11.9°C 52.9°F11.6°C 98% 15.0 mph SSW24.1 kmh SSW 32.0 mph51.5 kmh 29.56 in1001.0 mb 0.01 in0.3 mm 0.00 in0.0 mm 0.33 in8.4 mm
07:42 AM 53.4°F11.9°C 52.9°F11.6°C 98% 16.0 mph SSW25.7 kmh SSW 36.0 mph57.9 kmh 29.56 in1001.0 mb 0.02 in0.5 mm 0.00 in0.0 mm 0.33 in8.4 mm
07:39 AM 53.4°F11.9°C 52.9°F11.6°C 98% 15.0 mph SSW24.1 kmh SSW 36.0 mph57.9 kmh 29.56 in1001.0 mb 0.02 in0.5 mm 0.00 in0.0 mm 0.33 in8.4 mm
07:36 AM 53.4°F11.9°C 52.7°F11.5°C 97% 15.0 mph SSW24.1 kmh SSW 36.0 mph57.9 kmh 29.56 in1001.0 mb 0.02 in0.5 mm 0.00 in0.0 mm 0.33 in8.4 mm
07:33 AM 53.6°F12.0°C 52.7°F11.5°C 97% 14.0 mph SSW22.5 kmh SSW 28.0 mph45.1 kmh 29.56 in1001.0 mb 0.02 in0.5 mm 0.00 in0.0 mm 0.33 in8.4 mm
07:30 AM 53.6°F12.0°C 52.7°F11.5°C 97% 15.0 mph SSW24.1 kmh SSW 28.0 mph45.1 kmh 29.57 in1001.4 mb 0.02 in0.5 mm 0.00 in0.0 mm 0.33 in8.4 mm
07:27 AM 53.6°F12.0°C 52.7°F11.5°C 97% 15.0 mph SSW24.1 kmh SSW 28.0 mph45.1 kmh 29.57 in1001.4 mb 0.02 in0.5 mm 0.00 in0.0 mm 0.33 in8.4 mm
07:24 AM 53.8°F12.1°C 52.9°F11.6°C 97% 15.0 mph SSW24.1 kmh SSW 28.0 mph45.1 kmh 29.57 in1001.4 mb 0.02 in0.5 mm 0.00 in0.0 mm 0.33 in8.4 mm
07:21 AM 53.8°F12.1°C 52.9°F11.6°C 97% 15.0 mph SSW24.1 kmh SSW 30.0 mph48.3 kmh 29.57 in1001.4 mb 0.03 in0.8 mm 0.00 in0.0 mm 0.33 in8.4 mm
07:18 AM 53.8°F12.1°C 52.9°F11.6°C 97% 14.0 mph SSW22.5 kmh SSW 30.0 mph48.3 kmh 29.58 in1001.7 mb 0.04 in1.0 mm 0.00 in0.0 mm 0.33 in8.4 mm
07:15 AM 53.8°F12.1°C 52.9°F11.6°C 97% 14.0 mph SSW22.5 kmh SSW 30.0 mph48.3 kmh 29.57 in1001.4 mb 0.04 in1.0 mm 0.00 in0.0 mm 0.33 in8.4 mm
07:12 AM 53.8°F12.1°C 53.1°F11.7°C 98% 15.0 mph SSW24.1 kmh SSW 27.0 mph43.5 kmh 29.58 in1001.7 mb 0.04 in1.0 mm 0.00 in0.0 mm 0.33 in8.4 mm
07:09 AM 53.6°F12.0°C 53.1°F11.7°C 98% 14.0 mph S22.5 kmh S 27.0 mph43.5 kmh 29.58 in1001.7 mb 0.04 in1.0 mm 0.00 in0.0 mm 0.33 in8.4 mm
07:06 AM 53.4°F11.9°C 52.9°F11.6°C 98% 14.0 mph S22.5 kmh S 27.0 mph43.5 kmh 29.58 in1001.7 mb 0.05 in1.3 mm 0.20 in5.1 mm 0.33 in8.4 mm
07:03 AM 53.4°F11.9°C 52.9°F11.6°C 98% 14.0 mph S22.5 kmh S 27.0 mph43.5 kmh 29.59 in1002.0 mb 0.04 in1.0 mm 0.00 in0.0 mm 0.32 in8.1 mm
07:00 AM 53.2°F11.8°C 52.7°F11.5°C 98% 14.0 mph S22.5 kmh S 24.0 mph38.6 kmh 29.59 in1002.0 mb 0.04 in1.0 mm 0.00 in0.0 mm 0.32 in8.1 mm
06:57 AM 53.1°F11.7°C 52.3°F11.3°C 97% 15.0 mph S24.1 kmh S 25.0 mph40.2 kmh 29.59 in1002.0 mb 0.05 in1.3 mm 0.00 in0.0 mm 0.32 in8.1 mm
06:54 AM 53.1°F11.7°C 52.3°F11.3°C 97% 15.0 mph S24.1 kmh S 25.0 mph40.2 kmh 29.59 in1002.0 mb 0.06 in1.5 mm 0.00 in0.0 mm 0.32 in8.1 mm
06:51 AM 53.1°F11.7°C 52.2°F11.2°C 97% 16.0 mph S25.7 kmh S 26.0 mph41.8 kmh 29.59 in1002.0 mb 0.06 in1.5 mm 0.00 in0.0 mm 0.32 in8.1 mm
06:48 AM 53.1°F11.7°C 52.2°F11.2°C 97% 18.0 mph S29.0 kmh S 32.0 mph51.5 kmh 29.59 in1002.0 mb 0.06 in1.5 mm 0.00 in0.0 mm 0.32 in8.1 mm
06:45 AM 52.9°F11.6°C 52.2°F11.2°C 97% 19.0 mph S30.6 kmh S 32.0 mph51.5 kmh 29.59 in1002.0 mb 0.07 in1.8 mm 0.00 in0.0 mm 0.32 in8.1 mm
06:42 AM 52.9°F11.6°C 52.2°F11.2°C 97% 20.0 mph S32.2 kmh S 32.0 mph51.5 kmh 29.60 in1002.4 mb 0.07 in1.8 mm 0.00 in0.0 mm 0.31 in7.9 mm
06:39 AM 52.9°F11.6°C 52.0°F11.1°C 97% 20.0 mph S32.2 kmh S 32.0 mph51.5 kmh 29.59 in1002.0 mb 0.09 in2.3 mm 0.00 in0.0 mm 0.31 in7.9 mm
06:36 AM 52.7°F11.5°C 51.8°F11.0°C 97% 20.0 mph S32.2 kmh S 30.0 mph48.3 kmh 29.60 in1002.4 mb 0.09 in2.3 mm 0.00 in0.0 mm 0.31 in7.9 mm
06:33 AM 52.9°F11.6°C 52.0°F11.1°C 97% 20.0 mph S32.2 kmh S 32.0 mph51.5 kmh 29.60 in1002.4 mb 0.09 in2.3 mm 0.00 in0.0 mm 0.31 in7.9 mm
06:30 AM 52.7°F11.5°C 51.8°F11.0°C 97% 21.0 mph S33.8 kmh S 32.0 mph51.5 kmh 29.60 in1002.4 mb 0.10 in2.5 mm 0.00 in0.0 mm 0.31 in7.9 mm
06:27 AM 52.7°F11.5°C 51.8°F11.0°C 97% 22.0 mph S35.4 kmh S 32.0 mph51.5 kmh 29.60 in1002.4 mb 0.10 in2.5 mm 0.00 in0.0 mm 0.31 in7.9 mm
06:24 AM 52.7°F11.5°C 51.8°F11.0°C 97% 22.0 mph S35.4 kmh S 31.0 mph49.9 kmh 29.60 in1002.4 mb 0.10 in2.5 mm 0.20 in5.1 mm 0.30 in7.6 mm
06:21 AM 52.7°F11.5°C 51.8°F11.0°C 97% 21.0 mph S33.8 kmh S 30.0 mph48.3 kmh 29.61 in1002.7 mb 0.09 in2.3 mm 0.00 in0.0 mm 0.29 in7.4 mm
06:18 AM 52.9°F11.6°C 52.0°F11.1°C 97% 22.0 mph S35.4 kmh S 32.0 mph51.5 kmh 29.61 in1002.7 mb 0.09 in2.3 mm 0.00 in0.0 mm 0.29 in7.4 mm
06:15 AM 52.9°F11.6°C 52.0°F11.1°C 97% 22.0 mph S35.4 kmh S 32.0 mph51.5 kmh 29.61 in1002.7 mb 0.09 in2.3 mm 0.00 in0.0 mm 0.29 in7.4 mm
06:12 AM 52.9°F11.6°C 52.0°F11.1°C 97% 23.0 mph S37.0 kmh S 34.0 mph54.7 kmh 29.61 in1002.7 mb 0.09 in2.3 mm 0.00 in0.0 mm 0.29 in7.4 mm
06:09 AM 52.9°F11.6°C 52.0°F11.1°C 97% 22.0 mph S35.4 kmh S 34.0 mph54.7 kmh 29.62 in1003.0 mb 0.09 in2.3 mm 0.00 in0.0 mm 0.29 in7.4 mm
06:06 AM 52.9°F11.6°C 52.2°F11.2°C 97% 22.0 mph S35.4 kmh S 35.0 mph56.3 kmh 29.61 in1002.7 mb 0.09 in2.3 mm 0.00 in0.0 mm 0.28 in7.1 mm
06:03 AM 52.9°F11.6°C 52.2°F11.2°C 97% 22.0 mph S35.4 kmh S 35.0 mph56.3 kmh 29.61 in1002.7 mb 0.09 in2.3 mm 0.00 in0.0 mm 0.28 in7.1 mm
06:00 AM 53.1°F11.7°C 52.2°F11.2°C 97% 22.0 mph S35.4 kmh S 35.0 mph56.3 kmh 29.62 in1003.0 mb 0.09 in2.3 mm 0.00 in0.0 mm 0.28 in7.1 mm
05:57 AM 52.9°F11.6°C 52.2°F11.2°C 97% 20.0 mph S32.2 kmh S 32.0 mph51.5 kmh 29.62 in1003.0 mb 0.09 in2.3 mm 0.40 in10.2 mm 0.28 in7.1 mm
05:54 AM 52.9°F11.6°C 52.0°F11.1°C 97% 18.0 mph S29.0 kmh S 29.0 mph46.7 kmh 29.64 in1003.7 mb 0.07 in1.8 mm 0.00 in0.0 mm 0.26 in6.6 mm
05:51 AM 52.9°F11.6°C 52.0°F11.1°C 97% 17.0 mph S27.4 kmh S 29.0 mph46.7 kmh 29.64 in1003.7 mb 0.07 in1.8 mm 0.00 in0.0 mm 0.26 in6.6 mm
05:48 AM 52.7°F11.5°C 51.8°F11.0°C 97% 16.0 mph S25.7 kmh S 29.0 mph46.7 kmh 29.64 in1003.7 mb 0.07 in1.8 mm 0.20 in5.1 mm 0.26 in6.6 mm
05:45 AM 52.7°F11.5°C 51.8°F11.0°C 97% 16.0 mph S25.7 kmh S 29.0 mph46.7 kmh 29.65 in1004.1 mb 0.06 in1.5 mm 0.00 in0.0 mm 0.25 in6.4 mm
05:42 AM 52.7°F11.5°C 51.8°F11.0°C 97% 17.0 mph S27.4 kmh S 29.0 mph46.7 kmh 29.65 in1004.1 mb 0.06 in1.5 mm 0.20 in5.1 mm 0.24 in6.1 mm
05:39 AM 52.7°F11.5°C 51.8°F11.0°C 97% 18.0 mph S29.0 kmh S 29.0 mph46.7 kmh 29.65 in1004.1 mb 0.05 in1.3 mm 0.20 in5.1 mm 0.23 in5.8 mm
05:36 AM 52.7°F11.5°C 51.8°F11.0°C 97% 19.0 mph S30.6 kmh S 28.0 mph45.1 kmh 29.65 in1004.1 mb 0.04 in1.0 mm 0.20 in5.1 mm 0.22 in5.6 mm
05:33 AM 52.5°F11.4°C 51.8°F11.0°C 97% 20.0 mph S32.2 kmh S 31.0 mph49.9 kmh 29.65 in1004.1 mb 0.03 in0.8 mm 0.20 in5.1 mm 0.21 in5.3 mm
05:30 AM 52.5°F11.4°C 51.8°F11.0°C 97% 19.0 mph S30.6 kmh S 31.0 mph49.9 kmh 29.67 in1004.7 mb 0.02 in0.5 mm 0.00 in0.0 mm 0.20 in5.1 mm
05:27 AM 52.5°F11.4°C 51.8°F11.0°C 97% 19.0 mph S30.6 kmh S 31.0 mph49.9 kmh 29.66 in1004.4 mb 0.02 in0.5 mm 0.00 in0.0 mm 0.20 in5.1 mm
05:24 AM 52.5°F11.4°C 51.8°F11.0°C 97% 18.0 mph S29.0 kmh S 30.0 mph48.3 kmh 29.66 in1004.4 mb 0.02 in0.5 mm 0.00 in0.0 mm 0.20 in5.1 mm
05:21 AM 52.5°F11.4°C 51.8°F11.0°C 97% 18.0 mph S29.0 kmh S 29.0 mph46.7 kmh 29.66 in1004.4 mb 0.02 in0.5 mm 0.00 in0.0 mm 0.20 in5.1 mm
05:18 AM 52.5°F11.4°C 51.8°F11.0°C 97% 18.0 mph S29.0 kmh S 30.0 mph48.3 kmh 29.67 in1004.7 mb 0.02 in0.5 mm 0.00 in0.0 mm 0.20 in5.1 mm
05:15 AM 52.5°F11.4°C 51.8°F11.0°C 97% 18.0 mph S29.0 kmh S 30.0 mph48.3 kmh 29.68 in1005.1 mb 0.02 in0.5 mm 0.00 in0.0 mm 0.20 in5.1 mm
05:12 AM 52.5°F11.4°C 51.6°F10.9°C 97% 17.0 mph S27.4 kmh S 30.0 mph48.3 kmh 29.68 in1005.1 mb 0.02 in0.5 mm 0.00 in0.0 mm 0.20 in5.1 mm
05:09 AM 52.5°F11.4°C 51.6°F10.9°C 97% 18.0 mph S29.0 kmh S 30.0 mph48.3 kmh 29.68 in1005.1 mb 0.03 in0.8 mm 0.20 in5.1 mm 0.20 in5.1 mm
05:06 AM 52.3°F11.3°C 51.6°F10.9°C 97% 18.0 mph S29.0 kmh S 30.0 mph48.3 kmh 29.67 in1004.7 mb 0.02 in0.5 mm 0.00 in0.0 mm 0.19 in4.8 mm
05:03 AM 52.3°F11.3°C 51.6°F10.9°C 97% 19.0 mph S30.6 kmh S 30.0 mph48.3 kmh 29.68 in1005.1 mb 0.04 in1.0 mm 0.00 in0.0 mm 0.19 in4.8 mm
05:00 AM 52.3°F11.3°C 51.6°F10.9°C 97% 19.0 mph S30.6 kmh S 30.0 mph48.3 kmh 29.68 in1005.1 mb 0.04 in1.0 mm 0.00 in0.0 mm 0.19 in4.8 mm
04:57 AM 52.3°F11.3°C 51.4°F10.8°C 97% 21.0 mph S33.8 kmh S 45.0 mph72.4 kmh 29.68 in1005.1 mb 0.04 in1.0 mm 0.00 in0.0 mm 0.19 in4.8 mm
04:54 AM 52.3°F11.3°C 51.6°F10.9°C 97% 21.0 mph S33.8 kmh S 45.0 mph72.4 kmh 29.68 in1005.1 mb 0.04 in1.0 mm 0.00 in0.0 mm 0.19 in4.8 mm
04:51 AM 52.3°F11.3°C 51.6°F10.9°C 97% 21.0 mph S33.8 kmh S 45.0 mph72.4 kmh 29.68 in1005.1 mb 0.04 in1.0 mm 0.00 in0.0 mm 0.19 in4.8 mm
04:48 AM 52.3°F11.3°C 51.4°F10.8°C 97% 21.0 mph S33.8 kmh S 34.0 mph54.7 kmh 29.68 in1005.1 mb 0.04 in1.0 mm 0.00 in0.0 mm 0.19 in4.8 mm
04:45 AM 52.2°F11.2°C 51.4°F10.8°C 97% 20.0 mph S32.2 kmh S 33.0 mph53.1 kmh 29.68 in1005.1 mb 0.04 in1.0 mm 0.00 in0.0 mm 0.19 in4.8 mm
04:42 AM 52.2°F11.2°C 51.4°F10.8°C 97% 19.0 mph S30.6 kmh S 33.0 mph53.1 kmh 29.69 in1005.4 mb 0.04 in1.0 mm 0.00 in0.0 mm 0.18 in4.6 mm
04:39 AM 52.2°F11.2°C 51.3°F10.7°C 97% 20.0 mph S32.2 kmh S 33.0 mph53.1 kmh 29.69 in1005.4 mb 0.04 in1.0 mm 0.00 in0.0 mm 0.18 in4.6 mm
04:36 AM 52.0°F11.1°C 51.3°F10.7°C 97% 22.0 mph SSW35.4 kmh SSW 31.0 mph49.9 kmh 29.70 in1005.8 mb 0.04 in1.0 mm 0.00 in0.0 mm 0.18 in4.6 mm
04:33 AM 52.0°F11.1°C 51.3°F10.7°C 97% 21.0 mph SSW33.8 kmh SSW 31.0 mph49.9 kmh 29.70 in1005.8 mb 0.04 in1.0 mm 0.00 in0.0 mm 0.18 in4.6 mm
04:30 AM 52.0°F11.1°C 51.1°F10.6°C 97% 21.0 mph SSW33.8 kmh SSW 31.0 mph49.9 kmh 29.70 in1005.8 mb 0.05 in1.3 mm 0.00 in0.0 mm 0.18 in4.6 mm
04:27 AM 51.6°F10.9°C 50.7°F10.4°C 97% 20.0 mph SSW32.2 kmh SSW 31.0 mph49.9 kmh 29.71 in1006.1 mb 0.05 in1.3 mm 0.00 in0.0 mm 0.18 in4.6 mm
04:24 AM 51.6°F10.9°C 50.7°F10.4°C 97% 20.0 mph S32.2 kmh S 31.0 mph49.9 kmh 29.71 in1006.1 mb 0.05 in1.3 mm 0.00 in0.0 mm 0.18 in4.6 mm
04:21 AM 51.4°F10.8°C 50.7°F10.4°C 97% 20.0 mph S32.2 kmh S 31.0 mph49.9 kmh 29.71 in1006.1 mb 0.05 in1.3 mm 0.00 in0.0 mm 0.18 in4.6 mm
04:18 AM 51.4°F10.8°C 50.5°F10.3°C 97% 22.0 mph S35.4 kmh S 32.0 mph51.5 kmh 29.71 in1006.1 mb 0.06 in1.5 mm 0.20 in5.1 mm 0.18 in4.6 mm
04:15 AM 51.3°F10.7°C 50.5°F10.3°C 97% 22.0 mph S35.4 kmh S 32.0 mph51.5 kmh 29.72 in1006.4 mb 0.05 in1.3 mm 0.00 in0.0 mm 0.17 in4.3 mm
04:12 AM 51.3°F10.7°C 50.5°F10.3°C 97% 22.0 mph S35.4 kmh S 32.0 mph51.5 kmh 29.72 in1006.4 mb 0.05 in1.3 mm 0.00 in0.0 mm 0.17 in4.3 mm
04:09 AM 51.3°F10.7°C 50.5°F10.3°C 97% 22.0 mph S35.4 kmh S 34.0 mph54.7 kmh 29.73 in1006.8 mb 0.05 in1.3 mm 0.00 in0.0 mm 0.17 in4.3 mm
04:06 AM 51.3°F10.7°C 50.5°F10.3°C 97% 22.0 mph S35.4 kmh S 35.0 mph56.3 kmh 29.73 in1006.8 mb 0.05 in1.3 mm 0.40 in10.2 mm 0.17 in4.3 mm
04:03 AM 51.3°F10.7°C 50.4°F10.2°C 97% 23.0 mph S37.0 kmh S 35.0 mph56.3 kmh 29.74 in1007.1 mb 0.03 in0.8 mm 0.00 in0.0 mm 0.15 in3.8 mm
04:00 AM 51.3°F10.7°C 50.4°F10.2°C 97% 23.0 mph S37.0 kmh S 35.0 mph56.3 kmh 29.74 in1007.1 mb 0.03 in0.8 mm 0.00 in0.0 mm 0.15 in3.8 mm
03:57 AM 51.1°F10.6°C 50.4°F10.2°C 97% 23.0 mph S37.0 kmh S 34.0 mph54.7 kmh 29.75 in1007.5 mb 0.03 in0.8 mm 0.00 in0.0 mm 0.15 in3.8 mm
03:54 AM 51.1°F10.6°C 50.4°F10.2°C 97% 24.0 mph S38.6 kmh S 34.0 mph54.7 kmh 29.75 in1007.5 mb 0.04 in1.0 mm 0.00 in0.0 mm 0.15 in3.8 mm
03:51 AM 51.1°F10.6°C 50.4°F10.2°C 97% 25.0 mph S40.2 kmh S 34.0 mph54.7 kmh 29.75 in1007.5 mb 0.04 in1.0 mm 0.00 in0.0 mm 0.15 in3.8 mm
03:48 AM 51.1°F10.6°C 50.2°F10.1°C 97% 24.0 mph S38.6 kmh S 34.0 mph54.7 kmh 29.76 in1007.8 mb 0.04 in1.0 mm 0.20 in5.1 mm 0.15 in3.8 mm
03:45 AM 50.9°F10.5°C 49.8°F9.9°C 96% 24.0 mph S38.6 kmh S 34.0 mph54.7 kmh 29.77 in1008.1 mb 0.03 in0.8 mm 0.00 in0.0 mm 0.14 in3.6 mm
03:42 AM 50.7°F10.4°C 49.6°F9.8°C 96% 23.0 mph S37.0 kmh S 34.0 mph54.7 kmh 29.77 in1008.1 mb 0.04 in1.0 mm 0.00 in0.0 mm 0.14 in3.6 mm
03:39 AM 50.7°F10.4°C 49.6°F9.8°C 96% 25.0 mph S40.2 kmh S 34.0 mph54.7 kmh 29.77 in1008.1 mb 0.04 in1.0 mm 0.00 in0.0 mm 0.14 in3.6 mm
03:36 AM 50.7°F10.4°C 49.8°F9.9°C 97% 25.0 mph S40.2 kmh S 34.0 mph54.7 kmh 29.78 in1008.5 mb 0.04 in1.0 mm 0.20 in5.1 mm 0.14 in3.6 mm
03:33 AM 50.7°F10.4°C 49.8°F9.9°C 97% 25.0 mph S40.2 kmh S 39.0 mph62.8 kmh 29.78 in1008.5 mb 0.03 in0.8 mm 0.00 in0.0 mm 0.13 in3.3 mm
03:30 AM 50.5°F10.3°C 49.5°F9.7°C 96% 25.0 mph S40.2 kmh S 39.0 mph62.8 kmh 29.78 in1008.5 mb 0.03 in0.8 mm 0.00 in0.0 mm 0.13 in3.3 mm
03:27 AM 50.5°F10.3°C 49.5°F9.7°C 96% 25.0 mph S40.2 kmh S 39.0 mph62.8 kmh 29.79 in1008.8 mb 0.03 in0.8 mm 0.00 in0.0 mm 0.13 in3.3 mm
03:24 AM 50.5°F10.3°C 49.5°F9.7°C 96% 26.0 mph S41.8 kmh S 39.0 mph62.8 kmh 29.79 in1008.8 mb 0.04 in1.0 mm 0.20 in5.1 mm 0.13 in3.3 mm
03:21 AM 50.5°F10.3°C 49.5°F9.7°C 96% 26.0 mph S41.8 kmh S 40.0 mph64.4 kmh 29.79 in1008.8 mb 0.03 in0.8 mm 0.00 in0.0 mm 0.13 in3.3 mm
03:18 AM 50.5°F10.3°C 49.5°F9.7°C 96% 26.0 mph S41.8 kmh S 40.0 mph64.4 kmh 29.79 in1008.8 mb 0.03 in0.8 mm 0.00 in0.0 mm 0.13 in3.3 mm
03:15 AM 50.4°F10.2°C 49.3°F9.6°C 96% 27.0 mph S43.5 kmh S 40.0 mph64.4 kmh 29.79 in1008.8 mb 0.03 in0.8 mm 0.00 in0.0 mm 0.13 in3.3 mm
03:12 AM 50.4°F10.2°C 49.3°F9.6°C 96% 25.0 mph S40.2 kmh S 37.0 mph59.5 kmh 29.79 in1008.8 mb 0.03 in0.8 mm 0.00 in0.0 mm 0.13 in3.3 mm
03:09 AM 50.4°F10.2°C 49.3°F9.6°C 96% 27.0 mph S43.5 kmh S 40.0 mph64.4 kmh 29.79 in1008.8 mb 0.03 in0.8 mm 0.00 in0.0 mm 0.12 in3.0 mm
03:06 AM 50.4°F10.2°C 49.3°F9.6°C 96% 27.0 mph S43.5 kmh S 40.0 mph64.4 kmh 29.80 in1009.1 mb 0.03 in0.8 mm 0.00 in0.0 mm 0.12 in3.0 mm
03:03 AM 50.4°F10.2°C 49.3°F9.6°C 96% 29.0 mph S46.7 kmh S 40.0 mph64.4 kmh 29.80 in1009.1 mb 0.04 in1.0 mm 0.00 in0.0 mm 0.12 in3.0 mm
03:00 AM 50.4°F10.2°C 49.3°F9.6°C 96% 30.0 mph S48.3 kmh S 40.0 mph64.4 kmh 29.80 in1009.1 mb 0.05 in1.3 mm 0.00 in0.0 mm 0.12 in3.0 mm
02:57 AM 50.4°F10.2°C 49.3°F9.6°C 96% 30.0 mph S48.3 kmh S 41.0 mph66.0 kmh 29.80 in1009.1 mb 0.06 in1.5 mm 0.00 in0.0 mm 0.12 in3.0 mm
02:54 AM 50.4°F10.2°C 49.3°F9.6°C 96% 30.0 mph S48.3 kmh S 43.0 mph69.2 kmh 29.81 in1009.5 mb 0.06 in1.5 mm 0.00 in0.0 mm 0.11 in2.8 mm
02:51 AM 50.2°F10.1°C 49.1°F9.5°C 96% 30.0 mph S48.3 kmh S 43.0 mph69.2 kmh 29.81 in1009.5 mb 0.06 in1.5 mm 0.00 in0.0 mm 0.11 in2.8 mm
02:48 AM 50.2°F10.1°C 49.1°F9.5°C 96% 30.0 mph S48.3 kmh S 44.0 mph70.8 kmh 29.82 in1009.8 mb 0.07 in1.8 mm 0.20 in5.1 mm 0.11 in2.8 mm
02:45 AM 50.2°F10.1°C 48.9°F9.4°C 96% 29.0 mph S46.7 kmh S 44.0 mph70.8 kmh 29.82 in1009.8 mb 0.06 in1.5 mm 0.00 in0.0 mm 0.10 in2.5 mm
02:42 AM 50.2°F10.1°C 48.9°F9.4°C 96% 29.0 mph S46.7 kmh S 44.0 mph70.8 kmh 29.82 in1009.8 mb 0.06 in1.5 mm 0.00 in0.0 mm 0.10 in2.5 mm
02:39 AM 50.2°F10.1°C 48.9°F9.4°C 96% 29.0 mph S46.7 kmh S 39.0 mph62.8 kmh 29.83 in1010.2 mb 0.07 in1.8 mm 0.00 in0.0 mm 0.10 in2.5 mm
02:36 AM 50.0°F10.0°C 48.9°F9.4°C 96% 30.0 mph S48.3 kmh S 43.0 mph69.2 kmh 29.83 in1010.2 mb 0.08 in2.0 mm 0.00 in0.0 mm 0.10 in2.5 mm
02:33 AM 50.0°F10.0°C 48.9°F9.4°C 96% 31.0 mph S49.9 kmh S 43.0 mph69.2 kmh 29.82 in1009.8 mb 0.08 in2.0 mm 0.00 in0.0 mm 0.10 in2.5 mm
02:30 AM 50.0°F10.0°C 48.9°F9.4°C 96% 31.0 mph S49.9 kmh S 43.0 mph69.2 kmh 29.83 in1010.2 mb 0.08 in2.0 mm 0.00 in0.0 mm 0.10 in2.5 mm
02:27 AM 49.8°F9.9°C 48.6°F9.2°C 95% 31.0 mph S49.9 kmh S 43.0 mph69.2 kmh 29.83 in1010.2 mb 0.09 in2.3 mm 0.20 in5.1 mm 0.10 in2.5 mm
02:24 AM 49.8°F9.9°C 48.6°F9.2°C 95% 30.0 mph S48.3 kmh S 42.0 mph67.6 kmh 29.84 in1010.5 mb 0.08 in2.0 mm 0.00 in0.0 mm 0.09 in2.3 mm
02:21 AM 49.8°F9.9°C 48.4°F9.1°C 95% 29.0 mph S46.7 kmh S 42.0 mph67.6 kmh 29.85 in1010.8 mb 0.08 in2.0 mm 0.00 in0.0 mm 0.09 in2.3 mm
02:18 AM 49.6°F9.8°C 48.4°F9.1°C 95% 28.0 mph S45.1 kmh S 38.0 mph61.2 kmh 29.84 in1010.5 mb 0.09 in2.3 mm 0.00 in0.0 mm 0.09 in2.3 mm
02:15 AM 49.6°F9.8°C 48.4°F9.1°C 95% 27.0 mph S43.5 kmh S 36.0 mph57.9 kmh 29.85 in1010.8 mb 0.09 in2.3 mm 0.00 in0.0 mm 0.09 in2.3 mm
02:12 AM 49.6°F9.8°C 48.2°F9.0°C 95% 27.0 mph S43.5 kmh S 36.0 mph57.9 kmh 29.85 in1010.8 mb 0.09 in2.3 mm 0.20 in5.1 mm 0.09 in2.3 mm
02:09 AM 49.6°F9.8°C 48.2°F9.0°C 95% 28.0 mph S45.1 kmh S 41.0 mph66.0 kmh 29.86 in1011.2 mb 0.08 in2.0 mm 0.00 in0.0 mm 0.09 in2.3 mm
02:06 AM 49.5°F9.7°C 48.2°F9.0°C 95% 28.0 mph S45.1 kmh S 42.0 mph67.6 kmh 29.86 in1011.2 mb 0.09 in2.3 mm 0.20 in5.1 mm 0.09 in2.3 mm
02:03 AM 49.5°F9.7°C 48.2°F9.0°C 95% 29.0 mph S46.7 kmh S 42.0 mph67.6 kmh 29.86 in1011.2 mb 0.08 in2.0 mm 0.20 in5.1 mm 0.08 in2.0 mm
02:00 AM 49.5°F9.7°C 48.2°F9.0°C 95% 29.0 mph S46.7 kmh S 42.0 mph67.6 kmh 29.86 in1011.2 mb 0.07 in1.8 mm 0.01 in0.3 mm 0.07 in1.8 mm
01:57 AM 49.5°F9.7°C 48.0°F8.9°C 95% 28.0 mph S45.1 kmh S 42.0 mph67.6 kmh 29.85 in1010.8 mb 0.06 in1.5 mm 0.00 in0.0 mm 0.06 in1.5 mm
01:54 AM 49.5°F9.7°C 48.0°F8.9°C 95% 28.0 mph S45.1 kmh S 37.0 mph59.5 kmh 29.86 in1011.2 mb 0.06 in1.5 mm 0.20 in5.1 mm 0.06 in1.5 mm
01:51 AM 49.5°F9.7°C 47.7°F8.7°C 94% 28.0 mph S45.1 kmh S 37.0 mph59.5 kmh 29.87 in1011.5 mb 0.05 in1.3 mm 0.20 in5.1 mm 0.05 in1.3 mm
01:48 AM 49.3°F9.6°C 47.7°F8.7°C 94% 27.0 mph S43.5 kmh S 37.0 mph59.5 kmh 29.87 in1011.5 mb 0.04 in1.0 mm 0.00 in0.0 mm 0.04 in1.0 mm
01:45 AM 49.3°F9.6°C 47.7°F8.7°C 94% 27.0 mph S43.5 kmh S 41.0 mph66.0 kmh 29.87 in1011.5 mb 0.04 in1.0 mm 0.00 in0.0 mm 0.04 in1.0 mm
01:42 AM 49.3°F9.6°C 47.7°F8.7°C 94% 28.0 mph S45.1 kmh S 41.0 mph66.0 kmh 29.88 in1011.9 mb 0.04 in1.0 mm 0.20 in5.1 mm 0.04 in1.0 mm
01:39 AM 49.3°F9.6°C 47.7°F8.7°C 94% 28.0 mph S45.1 kmh S 41.0 mph66.0 kmh 29.88 in1011.9 mb 0.03 in0.8 mm 0.20 in5.1 mm 0.03 in0.8 mm
01:36 AM 49.3°F9.6°C 47.7°F8.7°C 94% 28.0 mph S45.1 kmh S 41.0 mph66.0 kmh 29.88 in1011.9 mb 0.02 in0.5 mm 0.00 in0.0 mm 0.02 in0.5 mm
01:33 AM 49.3°F9.6°C 47.5°F8.6°C 94% 27.0 mph S43.5 kmh S 40.0 mph64.4 kmh 29.89 in1012.2 mb 0.02 in0.5 mm 0.00 in0.0 mm 0.02 in0.5 mm
01:30 AM 49.3°F9.6°C 47.3°F8.5°C 93% 27.0 mph S43.5 kmh S 40.0 mph64.4 kmh 29.89 in1012.2 mb 0.02 in0.5 mm 0.00 in0.0 mm 0.02 in0.5 mm
01:27 AM 49.3°F9.6°C 47.3°F8.5°C 93% 28.0 mph S45.1 kmh S 40.0 mph64.4 kmh 29.90 in1012.5 mb 0.02 in0.5 mm 0.00 in0.0 mm 0.02 in0.5 mm
01:24 AM 49.3°F9.6°C 47.3°F8.5°C 93% 28.0 mph S45.1 kmh S 40.0 mph64.4 kmh 29.90 in1012.5 mb 0.02 in0.5 mm 0.00 in0.0 mm 0.02 in0.5 mm
01:21 AM 49.3°F9.6°C 47.3°F8.5°C 93% 27.0 mph S43.5 kmh S 38.0 mph61.2 kmh 29.91 in1012.9 mb 0.02 in0.5 mm 0.20 in5.1 mm 0.02 in0.5 mm
01:18 AM 49.3°F9.6°C 47.3°F8.5°C 93% 26.0 mph S41.8 kmh S 36.0 mph57.9 kmh 29.91 in1012.9 mb 0.01 in0.3 mm 0.00 in0.0 mm 0.01 in0.3 mm
01:15 AM 49.3°F9.6°C 47.3°F8.5°C 93% 24.0 mph S38.6 kmh S 36.0 mph57.9 kmh 29.91 in1012.9 mb 0.01 in0.3 mm 0.00 in0.0 mm 0.01 in0.3 mm
01:12 AM 49.3°F9.6°C 47.3°F8.5°C 93% 23.0 mph S37.0 kmh S 36.0 mph57.9 kmh 29.92 in1013.2 mb 0.01 in0.3 mm 0.00 in0.0 mm 0.01 in0.3 mm
01:09 AM 49.3°F9.6°C 47.1°F8.4°C 92% 24.0 mph S38.6 kmh S 36.0 mph57.9 kmh 29.92 in1013.2 mb 0.01 in0.3 mm 0.20 in5.1 mm 0.01 in0.3 mm
01:06 AM 49.3°F9.6°C 47.1°F8.4°C 92% 25.0 mph S40.2 kmh S 36.0 mph57.9 kmh 29.93 in1013.5 mb 0.00 in0.0 mm 0.00 in0.0 mm 0.00 in0.0 mm
01:03 AM 49.5°F9.7°C 47.1°F8.4°C 92% 26.0 mph S41.8 kmh S 36.0 mph57.9 kmh 29.93 in1013.5 mb 0.00 in0.0 mm 0.00 in0.0 mm 0.00 in0.0 mm
01:00 AM 49.5°F9.7°C 47.3°F8.5°C 92% 24.0 mph S38.6 kmh S 34.0 mph54.7 kmh 29.93 in1013.5 mb 0.00 in0.0 mm 0.00 in0.0 mm 0.00 in0.0 mm
12:57 AM 49.5°F9.7°C 46.9°F8.3°C 91% 22.0 mph S35.4 kmh S 32.0 mph51.5 kmh 29.94 in1013.9 mb 0.00 in0.0 mm 0.00 in0.0 mm 0.00 in0.0 mm
12:54 AM 49.6°F9.8°C 47.1°F8.4°C 91% 21.0 mph S33.8 kmh S 32.0 mph51.5 kmh 29.94 in1013.9 mb 0.00 in0.0 mm 0.00 in0.0 mm 0.00 in0.0 mm
12:51 AM 49.6°F9.8°C 47.1°F8.4°C 91% 20.0 mph S32.2 kmh S 30.0 mph48.3 kmh 29.95 in1014.2 mb 0.00 in0.0 mm 0.00 in0.0 mm 0.00 in0.0 mm
12:48 AM 49.6°F9.8°C 47.1°F8.4°C 91% 22.0 mph S35.4 kmh S 34.0 mph54.7 kmh 29.96 in1014.6 mb 0.00 in0.0 mm 0.00 in0.0 mm 0.00 in0.0 mm
12:45 AM 49.6°F9.8°C 47.1°F8.4°C 91% 23.0 mph S37.0 kmh S 34.0 mph54.7 kmh 29.96 in1014.6 mb 0.00 in0.0 mm 0.00 in0.0 mm 0.00 in0.0 mm
12:42 AM 49.6°F9.8°C 47.1°F8.4°C 91% 23.0 mph S37.0 kmh S 34.0 mph54.7 kmh 29.96 in1014.6 mb 0.00 in0.0 mm 0.00 in0.0 mm 0.00 in0.0 mm
12:39 AM 49.6°F9.8°C 47.1°F8.4°C 91% 22.0 mph S35.4 kmh S 34.0 mph54.7 kmh 29.96 in1014.6 mb 0.00 in0.0 mm 0.00 in0.0 mm 0.00 in0.0 mm
12:36 AM 49.6°F9.8°C 47.1°F8.4°C 91% 21.0 mph S33.8 kmh S 31.0 mph49.9 kmh 29.96 in1014.6 mb 0.00 in0.0 mm 0.00 in0.0 mm 0.00 in0.0 mm
12:33 AM 49.6°F9.8°C 46.8°F8.2°C 90% 22.0 mph S35.4 kmh S 34.0 mph54.7 kmh 29.97 in1014.9 mb 0.00 in0.0 mm 0.00 in0.0 mm 0.00 in0.0 mm
12:30 AM 49.6°F9.8°C 46.8°F8.2°C 90% 22.0 mph S35.4 kmh S 34.0 mph54.7 kmh 29.97 in1014.9 mb 0.00 in0.0 mm 0.00 in0.0 mm 0.00 in0.0 mm
12:27 AM 49.6°F9.8°C 46.8°F8.2°C 90% 22.0 mph S35.4 kmh S 34.0 mph54.7 kmh 29.97 in1014.9 mb 0.00 in0.0 mm 0.00 in0.0 mm 0.00 in0.0 mm
12:24 AM 49.6°F9.8°C 46.8°F8.2°C 90% 21.0 mph S33.8 kmh S 36.0 mph57.9 kmh 29.98 in1015.2 mb 0.00 in0.0 mm 0.00 in0.0 mm 0.00 in0.0 mm
12:21 AM 49.6°F9.8°C 46.8°F8.2°C 90% 20.0 mph S32.2 kmh S 36.0 mph57.9 kmh 29.98 in1015.2 mb 0.00 in0.0 mm 0.00 in0.0 mm 0.00 in0.0 mm
12:18 AM 49.6°F9.8°C 46.8°F8.2°C 90% 19.0 mph S30.6 kmh S 36.0 mph57.9 kmh 29.99 in1015.6 mb 0.00 in0.0 mm 0.00 in0.0 mm 0.00 in0.0 mm
12:15 AM 49.5°F9.7°C 46.8°F8.2°C 90% 18.0 mph S29.0 kmh S 30.0 mph48.3 kmh 29.99 in1015.6 mb 0.00 in0.0 mm 0.00 in0.0 mm 0.00 in0.0 mm
12:12 AM 49.5°F9.7°C 46.8°F8.2°C 90% 17.0 mph S27.4 kmh S 26.0 mph41.8 kmh 30.00 in1015.9 mb 0.00 in0.0 mm 0.00 in0.0 mm 0.00 in0.0 mm
12:09 AM 49.5°F9.7°C 46.8°F8.2°C 90% 17.0 mph S27.4 kmh S 26.0 mph41.8 kmh 30.00 in1015.9 mb 0.00 in0.0 mm 0.00 in0.0 mm 0.00 in0.0 mm
12:06 AM 49.5°F9.7°C 46.8°F8.2°C 90% 17.0 mph S27.4 kmh S 26.0 mph41.8 kmh 30.00 in1015.9 mb 0.00 in0.0 mm 0.00 in0.0 mm 0.00 in0.0 mm
12:03 AM 49.5°F9.7°C 46.8°F8.2°C 90% 20.0 mph S32.2 kmh S 37.0 mph59.5 kmh 30.01 in1016.3 mb 0.00 in0.0 mm 0.00 in0.0 mm 0.00 in0.0 mm
12:00 AM 49.6°F9.8°C 46.8°F8.2°C 90% 21.0 mph S33.8 kmh S 37.0 mph59.5 kmh 30.00 in1015.9 mb 0.00 in0.0 mm 0.00 in0.0 mm 0.00 in0.0 mm